createdAt,value
2019-01-11T00:01:25.794Z,30.60
2019-01-11T00:06:30.364Z,30.67
2019-01-11T00:11:34.985Z,31.93
2019-01-11T00:16:39.545Z,32.93
2019-01-11T00:21:44.043Z,30.37
2019-01-11T00:26:48.607Z,32.43
2019-01-11T00:31:53.196Z,32.13
2019-01-11T00:36:57.734Z,33.97
2019-01-11T00:42:02.330Z,32.27
2019-01-11T00:47:06.940Z,31.97
2019-01-11T00:52:11.500Z,31.10
2019-01-11T00:57:15.998Z,32.20
2019-01-11T01:02:20.564Z,30.13
2019-01-11T01:07:25.069Z,31.77
2019-01-11T01:12:29.585Z,28.00
2019-01-11T01:17:34.179Z,32.13
2019-01-11T01:22:38.781Z,28.57
2019-01-11T01:27:43.369Z,29.10
2019-01-11T01:32:48.033Z,27.43
2019-01-11T01:37:52.603Z,26.20
2019-01-11T01:42:57.197Z,28.43
2019-01-11T01:48:01.817Z,28.10
2019-01-11T01:53:06.425Z,26.90
2019-01-11T01:58:11.045Z,24.87
2019-01-11T02:03:15.631Z,26.00
2019-01-11T02:08:20.216Z,25.20
2019-01-11T02:13:24.830Z,26.70
2019-01-11T02:18:29.409Z,25.83
2019-01-11T02:23:33.949Z,26.57
2019-01-11T02:28:38.521Z,27.93
2019-01-11T02:33:43.030Z,27.30
2019-01-11T02:38:47.632Z,27.27
2019-01-11T02:43:52.272Z,24.83
2019-01-11T02:48:56.834Z,26.00
2019-01-11T02:54:01.409Z,26.30
2019-01-11T02:59:05.998Z,26.13
2019-01-11T03:04:10.538Z,26.87
2019-01-11T03:09:15.136Z,26.30
2019-01-11T03:14:19.713Z,24.37
2019-01-11T03:19:24.301Z,25.47
2019-01-11T03:24:28.884Z,25.47
2019-01-11T03:29:34.728Z,26.27
2019-01-11T03:34:52.475Z,26.50
2019-01-11T03:39:58.109Z,25.70
2019-01-11T03:45:02.718Z,26.20
2019-01-11T03:50:08.377Z,25.50
2019-01-11T03:55:14.424Z,26.57
2019-01-11T04:00:23.485Z,25.07
2019-01-11T04:05:28.097Z,26.67
2019-01-11T04:10:32.685Z,25.80
2019-01-11T04:15:37.250Z,24.43
2019-01-11T04:20:41.854Z,24.70
2019-01-11T04:25:47.731Z,25.93
2019-01-11T04:30:52.344Z,25.67
2019-01-11T04:35:56.918Z,26.20
2019-01-11T04:41:01.508Z,24.33
2019-01-11T04:46:06.080Z,27.33
2019-01-11T04:51:10.658Z,26.13
2019-01-11T04:56:15.270Z,25.13
2019-01-11T05:01:19.848Z,25.83
2019-01-11T05:06:24.485Z,25.37
2019-01-11T05:11:29.052Z,26.63
2019-01-11T05:16:39.466Z,26.23
2019-01-11T05:21:39.885Z,26.70
2019-01-11T05:26:44.549Z,25.80
2019-01-11T05:31:49.165Z,27.50
2019-01-11T05:36:53.881Z,32.65
2019-01-11T05:41:58.417Z,37.65
2019-01-11T05:47:02.985Z,29.37
2019-01-11T05:52:07.527Z,26.70
2019-01-11T05:57:12.087Z,27.67
2019-01-11T06:02:16.661Z,25.67
2019-01-11T06:07:38.686Z,27.10
2019-01-11T06:12:43.291Z,37.03
2019-01-11T06:17:47.811Z,27.80
2019-01-11T06:22:52.381Z,36.35
2019-01-11T06:27:56.961Z,35.75
2019-01-11T06:33:01.462Z,37.03
2019-01-11T06:38:06.237Z,25.87
2019-01-11T06:43:10.757Z,27.10
2019-01-11T06:48:22.317Z,26.10
2019-01-11T06:53:26.807Z,25.90
2019-01-11T06:58:31.382Z,24.70
2019-01-11T07:03:36.025Z,27.13
2019-01-11T07:08:40.574Z,26.10
2019-01-11T07:13:45.189Z,26.77
2019-01-11T07:18:49.786Z,28.03
2019-01-11T07:23:54.371Z,36.05
2019-01-11T07:28:58.966Z,27.33
2019-01-11T07:34:03.529Z,26.20
2019-01-11T07:39:31.446Z,26.77
2019-01-11T07:44:36.037Z,25.33
2019-01-11T07:49:40.611Z,24.20
2019-01-11T07:54:45.204Z,24.37
2019-01-11T07:59:49.779Z,23.70
2019-01-11T08:04:54.351Z,24.13
2019-01-11T08:09:58.950Z,26.30
2019-01-11T08:15:03.568Z,30.82
2019-01-11T08:20:08.459Z,31.37
2019-01-11T08:25:13.867Z,21.87
2019-01-11T08:30:18.535Z,23.87
2019-01-11T08:35:23.122Z,29.97
2019-01-11T08:40:27.724Z,23.50
2019-01-11T08:45:32.311Z,22.30
2019-01-11T08:50:36.901Z,25.07
2019-01-11T08:55:41.552Z,21.13
2019-01-11T09:00:46.683Z,20.50
2019-01-11T09:05:51.253Z,22.33
2019-01-11T09:10:55.857Z,21.80
2019-01-11T09:16:00.470Z,20.30
2019-01-11T09:21:09.406Z,22.87
2019-01-11T09:26:11.353Z,21.17
2019-01-11T09:31:16.013Z,20.50
2019-01-11T09:36:20.611Z,20.27
2019-01-11T09:41:25.192Z,20.53
2019-01-11T09:46:29.814Z,19.47
2019-01-11T09:51:34.386Z,20.77
2019-01-11T09:56:39.003Z,22.20
2019-01-11T10:01:45.089Z,26.50
2019-01-11T10:07:07.023Z,28.93
2019-01-11T10:12:11.592Z,29.03
2019-01-11T10:17:16.124Z,28.10
2019-01-11T10:22:20.726Z,26.30
2019-01-11T10:27:25.316Z,28.83
2019-01-11T10:32:29.874Z,23.37
2019-01-11T10:37:34.495Z,22.43
2019-01-11T10:42:39.687Z,23.70
2019-01-11T10:47:44.336Z,24.73
2019-01-11T10:52:48.828Z,25.00
2019-01-11T10:57:53.521Z,25.57
2019-01-11T11:02:58.652Z,24.77
2019-01-11T11:08:03.300Z,26.40
2019-01-11T11:13:07.897Z,25.20
2019-01-11T11:18:12.493Z,25.17
2019-01-11T11:23:17.141Z,26.83
2019-01-11T11:28:21.721Z,24.20
2019-01-11T11:33:26.340Z,25.53
2019-01-11T11:38:30.937Z,22.73
2019-01-11T11:43:35.574Z,23.30
2019-01-11T11:48:40.160Z,24.47
2019-01-11T11:53:44.744Z,23.10
2019-01-11T11:58:49.318Z,22.10
2019-01-11T12:03:53.805Z,20.80
2019-01-11T12:08:58.363Z,24.13
2019-01-11T12:14:02.983Z,22.23
2019-01-11T12:19:07.554Z,21.83
2019-01-11T12:24:12.078Z,23.33
2019-01-11T12:29:16.857Z,22.83
2019-01-11T12:34:21.515Z,21.90
2019-01-11T12:39:26.110Z,21.93
2019-01-11T12:44:30.687Z,23.40
2019-01-11T12:49:35.288Z,23.07
2019-01-11T12:54:39.917Z,20.77
2019-01-11T12:59:44.532Z,21.90
2019-01-11T13:04:49.191Z,18.97
2019-01-11T13:09:53.735Z,16.90
2019-01-11T13:14:58.321Z,18.70
2019-01-11T13:20:02.888Z,16.13
2019-01-11T13:25:07.838Z,15.67
2019-01-11T13:30:14.579Z,15.97
2019-01-11T13:35:19.270Z,16.80
2019-01-11T13:40:25.319Z,19.80
2019-01-11T13:45:30.135Z,17.17
2019-01-11T13:50:36.483Z,17.23
2019-01-11T13:55:41.042Z,15.50
2019-01-11T14:00:45.592Z,15.80
2019-01-11T14:05:50.169Z,17.77
2019-01-11T14:10:54.818Z,15.73
2019-01-11T14:15:59.518Z,16.67
2019-01-11T14:21:04.213Z,16.53
2019-01-11T14:26:08.809Z,13.83
2019-01-11T14:31:13.461Z,14.63
2019-01-11T14:36:17.980Z,15.60
2019-01-11T14:41:23.153Z,17.97
2019-01-11T14:46:27.708Z,18.80
2019-01-11T14:51:32.314Z,18.07
2019-01-11T14:56:36.900Z,16.07
2019-01-11T15:01:41.492Z,16.87
2019-01-11T15:06:46.061Z,16.10
2019-01-11T15:11:50.680Z,18.13
2019-01-11T15:16:55.185Z,17.93
2019-01-11T15:21:59.788Z,18.37
2019-01-11T15:27:04.491Z,17.97
2019-01-11T15:32:09.061Z,19.03
2019-01-11T15:37:13.657Z,18.63
2019-01-11T15:42:18.192Z,18.50
2019-01-11T15:47:22.757Z,17.87
2019-01-11T15:52:33.088Z,17.90
2019-01-11T15:57:42.689Z,19.37
2019-01-11T16:02:47.353Z,19.43
2019-01-11T16:07:51.936Z,21.90
2019-01-11T16:13:24.247Z,24.90
2019-01-11T16:18:30.767Z,21.00
2019-01-11T16:23:35.393Z,21.13
2019-01-11T16:28:39.969Z,20.20
2019-01-11T16:33:44.566Z,21.53
2019-01-11T16:38:49.143Z,26.23
2019-01-11T16:43:53.750Z,29.43
2019-01-11T16:48:58.286Z,23.40
2019-01-11T16:54:02.882Z,28.23
2019-01-11T16:59:07.573Z,23.70
2019-01-11T17:04:12.171Z,23.90
2019-01-11T17:09:16.777Z,24.00
2019-01-11T17:14:21.337Z,23.83
2019-01-11T17:19:25.943Z,24.27
2019-01-11T17:24:30.522Z,22.43
2019-01-11T17:29:35.100Z,30.23
2019-01-11T17:34:39.614Z,29.92
2019-01-11T17:39:44.246Z,26.27
2019-01-11T17:44:48.804Z,31.50
2019-01-11T17:49:53.427Z,31.62
2019-01-11T17:54:58.039Z,26.60
2019-01-11T18:00:02.750Z,27.23
2019-01-11T18:05:08.868Z,25.50
2019-01-11T18:10:14.101Z,25.20
2019-01-11T18:15:21.027Z,24.20
2019-01-11T18:20:27.937Z,26.00
2019-01-11T18:25:32.516Z,26.67
2019-01-11T18:30:37.090Z,30.73
2019-01-11T18:35:41.696Z,30.37
2019-01-11T18:40:46.308Z,30.70
2019-01-11T18:45:50.923Z,29.23
2019-01-11T18:50:55.604Z,27.40
2019-01-11T18:56:05.398Z,26.37
2019-01-11T19:01:06.443Z,22.73
2019-01-11T19:06:11.035Z,31.00
2019-01-11T19:11:15.643Z,31.37
2019-01-11T19:16:20.305Z,22.37
2019-01-11T19:21:24.981Z,23.20
2019-01-11T19:26:29.497Z,22.03
2019-01-11T19:31:34.066Z,23.03
2019-01-11T19:36:38.722Z,20.37
2019-01-11T19:41:43.362Z,20.53
2019-01-11T19:46:47.951Z,19.73
2019-01-11T19:51:52.567Z,18.87
2019-01-11T19:56:57.127Z,19.40
2019-01-11T20:02:01.757Z,17.87
2019-01-11T20:07:06.483Z,19.93
2019-01-11T20:12:11.087Z,19.13
2019-01-11T20:17:15.736Z,16.93
2019-01-11T20:22:20.410Z,23.55
2019-01-11T20:27:25.005Z,21.93
2019-01-11T20:32:29.538Z,16.97
2019-01-11T20:37:34.671Z,16.50
2019-01-11T20:42:39.295Z,17.77
2019-01-11T20:47:43.878Z,15.63
2019-01-11T20:52:48.501Z,15.33
2019-01-11T20:57:53.367Z,15.13
2019-01-11T21:02:57.933Z,15.37
2019-01-11T21:08:02.437Z,13.97
2019-01-11T21:13:07.361Z,15.43
2019-01-11T21:18:12.183Z,14.90
2019-01-11T21:23:16.686Z,15.77
2019-01-11T21:28:21.195Z,14.40
2019-01-11T21:33:25.775Z,15.17
2019-01-11T21:38:30.377Z,13.00
2019-01-11T21:43:34.981Z,13.73
2019-01-11T21:48:39.604Z,12.67
2019-01-11T21:53:44.270Z,13.90
2019-01-11T21:58:48.838Z,12.20
2019-01-11T22:03:53.395Z,12.33
2019-01-11T22:08:58.034Z,12.20
2019-01-11T22:14:02.763Z,13.43
2019-01-11T22:19:07.384Z,13.75
2019-01-11T22:24:11.982Z,10.90
2019-01-11T22:29:16.597Z,10.20
2019-01-11T22:34:21.198Z,8.83
2019-01-11T22:39:25.774Z,9.53
2019-01-11T22:44:30.373Z,9.83
2019-01-11T22:49:34.992Z,9.47
2019-01-11T22:54:39.602Z,9.50
2019-01-11T22:59:44.210Z,10.57
2019-01-11T23:04:48.806Z,8.93
2019-01-11T23:10:05.835Z,9.87
2019-01-11T23:15:14.633Z,8.90
2019-01-11T23:20:19.181Z,9.47
2019-01-11T23:25:23.747Z,10.33
2019-01-11T23:30:28.267Z,9.40
2019-01-11T23:35:32.813Z,9.23
2019-01-11T23:40:37.381Z,9.37
2019-01-11T23:45:41.911Z,8.17
2019-01-11T23:50:46.668Z,9.60
2019-01-11T23:55:51.196Z,9.07
